createdAt,value
2022-09-06T12:12:07.628Z,34.95
2022-09-06T12:13:07.606Z,35.03
2022-09-06T12:14:07.601Z,35.17
2022-09-06T12:15:07.789Z,35.33
2022-09-06T12:16:13.673Z,35.25
2022-09-06T12:17:13.578Z,35.50
2022-09-06T12:18:07.562Z,35.80
2022-09-06T12:19:07.552Z,35.96
2022-09-06T12:20:07.546Z,35.93
2022-09-06T12:21:07.533Z,36.21
2022-09-06T12:22:07.524Z,36.43
2022-09-06T12:23:07.518Z,36.36
2022-09-06T12:24:07.711Z,36.59
2022-09-06T12:25:07.498Z,36.55
2022-09-06T12:26:07.486Z,36.80
2022-09-06T12:27:07.480Z,36.85
2022-09-06T12:28:07.669Z,37.15
2022-09-06T12:29:09.514Z,37.40
2022-09-06T12:30:07.453Z,37.46
2022-09-06T12:31:07.469Z,37.77
2022-09-06T12:32:07.637Z,38.68
2022-09-06T12:33:13.431Z,40.00
2022-09-06T12:34:07.420Z,40.76
2022-09-06T12:36:09.400Z,41.06
2022-09-06T12:37:07.396Z,41.23
2022-09-06T12:38:07.384Z,40.64
2022-09-06T12:39:07.380Z,41.14
2022-09-06T12:40:07.433Z,41.14
2022-09-06T12:41:52.147Z,39.61
2022-09-06T12:42:52.301Z,38.57
2022-09-06T12:43:46.089Z,38.10
2022-09-06T12:44:46.079Z,38.76
2022-09-06T12:45:46.075Z,39.51
2022-09-06T12:46:46.152Z,39.85
2022-09-06T12:47:46.064Z,40.41
2022-09-06T12:48:46.051Z,40.93
2022-09-06T12:49:46.051Z,41.23
2022-09-06T12:50:46.247Z,40.47
2022-09-06T12:51:48.235Z,39.81
2022-09-06T12:52:47.272Z,40.25
2022-09-06T12:53:46.024Z,40.71
2022-09-06T12:54:46.223Z,40.18
2022-09-06T12:55:46.014Z,39.50
2022-09-06T12:56:46.212Z,39.51
2022-09-06T12:57:52.213Z,39.78
2022-09-06T12:58:45.996Z,39.22
2022-09-06T12:59:45.997Z,38.76
2022-09-06T13:00:48.044Z,38.72
2022-09-06T13:01:46.271Z,38.75
2022-09-06T13:02:46.098Z,39.06
2022-09-06T13:03:45.968Z,39.27
2022-09-06T13:04:45.964Z,39.82
2022-09-06T13:05:45.965Z,40.44
2022-09-06T13:06:46.163Z,41.06
2022-09-06T13:07:51.965Z,41.57
2022-09-06T13:08:46.154Z,41.52
2022-09-06T13:09:52.173Z,40.38
2022-09-06T13:10:45.941Z,38.84
2022-09-06T13:11:52.214Z,37.68
2022-09-06T13:12:45.931Z,37.22
2022-09-06T13:13:45.922Z,36.21
2022-09-06T13:14:46.125Z,35.87
2022-09-06T13:15:45.954Z,36.01
2022-09-06T13:16:45.913Z,35.70
2022-09-06T13:17:51.915Z,35.77
2022-09-06T13:18:52.113Z,35.60
2022-09-06T13:19:45.901Z,34.96
2022-09-06T13:20:46.100Z,35.56
2022-09-06T13:21:45.888Z,36.46
2022-09-06T13:22:45.891Z,37.31
2022-09-06T13:23:48.139Z,37.90
2022-09-06T13:24:47.123Z,38.18
2022-09-06T13:25:45.875Z,38.52
2022-09-06T13:27:22.629Z,38.87
2022-09-06T13:28:26.703Z,38.18
2022-09-06T13:29:20.542Z,37.58
2022-09-06T13:30:26.544Z,37.66
2022-09-06T13:32:46.810Z,37.93
2022-09-06T13:33:52.794Z,37.65
2022-09-06T13:34:46.577Z,37.07
2022-09-06T13:35:52.584Z,37.44
2022-09-06T13:36:46.623Z,37.83
2022-09-06T13:37:46.572Z,37.34
2022-09-06T13:38:48.616Z,37.65
2022-09-06T13:39:48.650Z,37.81
2022-09-06T13:41:10.531Z,37.10
2022-09-06T13:41:47.795Z,36.48
2022-09-06T13:42:52.555Z,35.90
2022-09-06T13:43:48.601Z,35.52
2022-09-06T13:44:46.540Z,35.21
2022-09-06T13:45:46.529Z,35.24
2022-09-06T13:46:46.825Z,35.14
2022-09-06T13:47:46.521Z,35.30
2022-09-06T13:48:46.715Z,35.97
2022-09-06T13:49:46.516Z,36.67
2022-09-06T13:50:46.506Z,36.99
2022-09-06T13:51:52.917Z,36.00
2022-09-06T13:52:46.491Z,35.48
2022-09-06T13:53:46.699Z,35.09
2022-09-06T13:54:46.480Z,35.66
2022-09-06T13:55:46.480Z,36.40
2022-09-06T13:56:53.092Z,36.59
2022-09-06T13:57:46.470Z,36.79
2022-09-06T13:58:46.867Z,36.28
2022-09-06T13:59:46.459Z,35.80
2022-09-06T14:00:46.456Z,36.11
2022-09-06T14:01:46.521Z,36.58
2022-09-06T14:03:41.277Z,37.56
2022-09-06T14:04:41.259Z,38.05
2022-09-06T14:05:41.456Z,37.25
2022-09-06T14:06:41.245Z,36.14
2022-09-06T14:07:41.446Z,36.07
2022-09-06T14:09:05.774Z,36.45
2022-09-06T14:09:48.278Z,36.77
2022-09-06T14:10:47.237Z,36.87
2022-09-06T14:11:48.427Z,36.94
2022-09-06T14:12:41.219Z,36.95
2022-09-06T14:13:41.211Z,37.02
2022-09-06T14:16:14.948Z,36.77
2022-09-06T14:17:20.986Z,36.84
2022-09-06T14:18:14.773Z,37.22
2022-09-06T14:19:14.760Z,37.62
2022-09-06T14:20:16.757Z,37.95
2022-09-06T14:21:20.764Z,38.18
2022-09-06T14:23:09.975Z,38.14
2022-09-06T14:24:09.551Z,38.19
2022-09-06T14:25:09.551Z,37.75
2022-09-06T14:26:15.550Z,37.74
2022-09-06T14:27:15.544Z,36.90
2022-09-06T14:28:09.533Z,36.34
2022-09-06T14:29:48.881Z,36.27
2022-09-06T14:30:48.934Z,36.50
2022-09-06T14:31:48.663Z,36.80
2022-09-06T14:32:48.856Z,37.00
2022-09-06T14:33:54.656Z,36.65
2022-09-06T14:34:48.843Z,35.93
2022-09-06T14:35:48.635Z,35.09
2022-09-06T14:36:54.638Z,34.27
2022-09-06T14:37:54.630Z,34.27
2022-09-06T14:38:48.819Z,34.27
2022-09-06T14:39:48.695Z,33.59
2022-09-06T14:40:48.602Z,32.97
2022-09-06T14:42:33.306Z,33.28
2022-09-06T14:43:27.284Z,33.21
2022-09-06T14:44:27.476Z,33.38
2022-09-06T14:45:27.474Z,33.98
2022-09-06T14:46:27.360Z,34.39
2022-09-06T14:47:27.255Z,34.47
2022-09-06T14:48:27.297Z,34.72
2022-09-06T14:49:27.443Z,34.81
2022-09-06T14:50:33.248Z,34.62
2022-09-06T14:51:27.433Z,34.84
2022-09-06T14:52:33.234Z,35.22
2022-09-06T14:53:39.854Z,35.62
2022-09-06T14:54:29.569Z,35.68
2022-09-06T14:55:27.208Z,35.53
2022-09-06T14:56:27.407Z,35.27
2022-09-06T14:57:27.200Z,34.98
2022-09-06T14:58:27.191Z,34.54
2022-09-06T14:59:33.186Z,33.94
2022-09-06T15:00:27.375Z,34.00
2022-09-06T15:01:27.294Z,34.34
2022-09-06T15:02:27.215Z,34.72
2022-09-06T15:03:27.786Z,35.10
2022-09-06T15:04:27.351Z,34.74
2022-09-06T15:05:33.396Z,34.56
2022-09-06T15:06:58.071Z,34.68
2022-09-06T15:07:58.258Z,34.43
2022-09-06T15:09:04.052Z,34.05
2022-09-06T15:09:58.041Z,33.58
2022-09-06T15:10:58.237Z,33.25
2022-09-06T15:11:58.235Z,33.18
2022-09-06T15:12:58.022Z,33.19
2022-09-06T15:13:58.014Z,33.06
2022-09-06T15:14:58.016Z,32.94
2022-09-06T15:15:58.060Z,32.79
2022-09-06T15:17:00.047Z,32.87
2022-09-06T15:17:57.983Z,32.77
2022-09-06T15:18:57.983Z,32.92
2022-09-06T15:19:57.973Z,32.99
2022-09-06T15:20:58.369Z,32.89
2022-09-06T15:21:57.970Z,32.66
2022-09-06T15:23:26.073Z,32.66
2022-09-06T15:23:59.031Z,32.36
2022-09-06T15:24:57.932Z,32.24
2022-09-06T15:25:57.933Z,32.03
2022-09-06T15:26:57.915Z,31.98
2022-09-06T15:27:57.915Z,32.21
2022-09-06T15:28:58.302Z,32.09
2022-09-06T15:29:57.895Z,32.00
2022-09-06T15:30:57.945Z,31.88
2022-09-06T15:31:57.880Z,31.90
2022-09-06T15:32:57.874Z,31.87
2022-09-06T15:33:57.876Z,31.91
2022-09-06T15:35:02.471Z,32.27
2022-09-06T15:35:58.888Z,32.74
2022-09-06T15:36:57.837Z,33.01
2022-09-06T15:37:57.833Z,33.21
2022-09-06T15:38:57.822Z,33.44
2022-09-06T15:39:57.846Z,33.53
2022-09-06T15:40:57.801Z,33.50
2022-09-06T15:42:03.807Z,33.70
2022-09-06T15:42:57.789Z,33.86
2022-09-06T15:43:57.780Z,33.87
2022-09-06T15:45:03.781Z,33.80
2022-09-06T15:45:57.845Z,33.41
2022-09-06T15:46:57.956Z,33.19
2022-09-06T15:47:59.749Z,32.74
2022-09-06T15:48:57.734Z,32.57
2022-09-06T15:49:57.733Z,32.66
2022-09-06T15:50:57.731Z,32.62
2022-09-06T15:51:57.720Z,32.55
2022-09-06T15:52:57.702Z,32.55
2022-09-06T15:53:57.696Z,32.51
2022-09-06T15:54:57.685Z,32.57
2022-09-06T15:55:57.682Z,32.63
2022-09-06T15:56:57.676Z,32.82
2022-09-06T15:57:57.662Z,32.96
2022-09-06T15:58:57.865Z,33.01
2022-09-06T15:59:57.646Z,33.07
2022-09-06T16:00:57.844Z,33.09
2022-09-06T16:01:57.894Z,33.01
2022-09-06T16:02:57.689Z,32.78
2022-09-06T16:03:57.607Z,32.56
2022-09-06T16:04:57.608Z,32.47
2022-09-06T16:06:57.599Z,32.24
2022-09-06T16:07:57.581Z,32.03
2022-09-06T16:08:57.579Z,31.72
2022-09-06T16:09:57.557Z,31.50
2022-09-06T16:10:57.583Z,31.20
2022-09-06T16:11:57.540Z,30.97
2022-09-06T16:12:57.736Z,30.72
2022-09-06T16:14:03.527Z,30.63
2022-09-06T16:14:57.515Z,30.54
2022-09-06T16:15:57.538Z,30.41
2022-09-06T16:16:57.689Z,30.45
2022-09-06T16:17:57.487Z,30.48
2022-09-06T16:18:57.499Z,30.35
2022-09-06T16:19:57.507Z,30.31
2022-09-06T16:20:57.488Z,30.34
2022-09-06T16:21:57.464Z,30.29
2022-09-06T16:22:57.653Z,30.29
2022-09-06T16:23:57.476Z,30.31
2022-09-06T16:24:57.483Z,30.20
2022-09-06T16:25:57.422Z,30.01
2022-09-06T16:27:03.420Z,29.78
2022-09-06T16:27:57.395Z,29.64
2022-09-06T16:28:57.415Z,29.50
2022-09-06T16:30:03.445Z,29.45
2022-09-06T16:30:57.487Z,29.41
2022-09-06T16:31:57.588Z,29.29
2022-09-06T16:32:57.378Z,29.23
2022-09-06T16:33:57.350Z,29.10
2022-09-06T16:34:57.350Z,28.99
2022-09-06T16:35:57.342Z,28.92
2022-09-06T16:36:57.371Z,28.88
2022-09-06T16:37:57.354Z,28.81
2022-09-06T16:38:57.337Z,28.80
2022-09-06T16:39:57.326Z,28.81
2022-09-06T16:40:57.260Z,28.78
2022-09-06T16:41:57.253Z,28.77
2022-09-06T16:42:57.240Z,28.74
2022-09-06T16:43:57.230Z,28.70
2022-09-06T16:44:57.228Z,28.66
2022-09-06T16:45:57.258Z,28.67
2022-09-06T16:46:57.203Z,28.64
2022-09-06T16:47:57.188Z,28.58
2022-09-06T16:48:57.177Z,28.56
2022-09-06T16:49:57.168Z,28.52
2022-09-06T16:51:03.167Z,28.52
2022-09-06T16:51:57.153Z,28.51
2022-09-06T16:52:57.142Z,28.51
2022-09-06T16:53:57.130Z,28.44
2022-09-06T16:54:57.118Z,28.40
2022-09-06T16:55:57.116Z,28.43
2022-09-06T16:56:57.100Z,28.41
2022-09-06T16:57:57.086Z,28.44
2022-09-06T16:58:57.078Z,28.41
2022-09-06T16:59:57.160Z,28.40
2022-09-06T17:00:57.095Z,28.41
2022-09-06T17:02:03.190Z,28.39
2022-09-06T17:02:57.100Z,28.43
2022-09-06T17:03:57.022Z,28.39
2022-09-06T17:05:03.027Z,28.41
2022-09-06T17:05:57.005Z,28.41
2022-09-06T17:06:57.196Z,28.40
2022-09-06T17:07:57.189Z,28.40
2022-09-06T17:08:56.980Z,28.36
2022-09-06T17:09:56.963Z,28.33
2022-09-06T17:10:56.956Z,28.34
2022-09-06T17:11:56.947Z,28.33
2022-09-06T17:12:56.935Z,28.36
2022-09-06T17:13:56.926Z,28.31
2022-09-06T17:14:56.918Z,28.29
2022-09-06T17:15:56.903Z,28.23
2022-09-06T17:16:56.973Z,28.20
2022-09-06T17:17:56.885Z,28.17
2022-09-06T17:18:57.279Z,28.16
2022-09-06T17:19:56.864Z,28.20
2022-09-06T17:20:56.854Z,28.20
2022-09-06T17:21:56.840Z,28.20
2022-09-06T17:22:58.888Z,28.16
2022-09-06T17:23:56.825Z,28.08
2022-09-06T17:24:56.811Z,27.99
2022-09-06T17:25:56.801Z,27.86
2022-09-06T17:26:56.990Z,27.80
2022-09-06T17:27:56.791Z,27.74
2022-09-06T17:28:56.976Z,27.68
2022-09-06T17:29:56.768Z,27.59
2022-09-06T17:30:56.817Z,27.55
2022-09-06T17:31:56.742Z,27.49
2022-09-06T17:32:56.729Z,27.39
2022-09-06T17:33:56.728Z,27.28
2022-09-06T17:34:56.708Z,27.22
2022-09-06T17:35:56.701Z,27.17
2022-09-06T17:36:56.700Z,27.17
2022-09-06T17:37:56.764Z,27.12
2022-09-06T17:39:02.703Z,27.10
2022-09-06T17:39:56.751Z,27.07
2022-09-06T17:40:56.646Z,27.09
2022-09-06T17:41:56.637Z,26.99
2022-09-06T17:42:56.630Z,26.88
2022-09-06T17:43:56.621Z,26.76
2022-09-06T17:44:56.810Z,26.71
2022-09-06T17:45:56.657Z,26.62
2022-09-06T17:47:11.881Z,26.47
2022-09-06T17:47:57.610Z,26.38
2022-09-06T17:48:56.570Z,26.22
2022-09-06T17:49:56.756Z,26.12
2022-09-06T17:50:56.552Z,26.06
2022-09-06T17:52:02.537Z,25.94
2022-09-06T17:52:56.523Z,25.85
2022-09-06T17:53:56.514Z,25.87
2022-09-06T17:54:56.501Z,25.77
2022-09-06T17:55:56.491Z,25.79
2022-09-06T17:56:58.540Z,25.73
2022-09-06T17:58:02.478Z,25.72
2022-09-06T17:58:56.465Z,25.67
2022-09-06T17:59:56.453Z,25.61
2022-09-06T18:00:56.529Z,25.55
2022-09-06T18:01:56.431Z,25.45
2022-09-06T18:02:56.421Z,25.38
2022-09-06T18:03:56.481Z,25.24
2022-09-06T18:04:56.458Z,25.17
2022-09-06T18:05:56.390Z,25.05
2022-09-06T18:06:56.381Z,24.99
2022-09-06T18:07:56.369Z,24.98
2022-09-06T18:08:56.372Z,25.05
2022-09-06T18:09:56.347Z,25.12
2022-09-06T18:10:56.345Z,25.12
2022-09-06T18:11:56.329Z,25.07
2022-09-06T18:12:56.320Z,25.01
2022-09-06T18:13:56.309Z,25.05
2022-09-06T18:14:56.295Z,25.01
2022-09-06T18:15:56.287Z,24.94
2022-09-06T18:16:56.366Z,24.92
2022-09-06T18:17:56.267Z,24.83
2022-09-06T18:18:56.253Z,24.76
2022-09-06T18:19:56.244Z,24.69
2022-09-06T18:20:56.233Z,24.65
2022-09-06T18:21:56.227Z,24.53
2022-09-06T18:22:56.217Z,24.49
2022-09-06T18:23:56.208Z,24.47
2022-09-06T18:24:58.305Z,24.45
2022-09-06T18:25:56.180Z,24.45
2022-09-06T18:26:56.171Z,24.35
2022-09-06T18:27:56.174Z,24.32
2022-09-06T18:28:56.151Z,24.30
2022-09-06T18:29:56.140Z,24.25
2022-09-06T18:30:56.354Z,24.15
2022-09-06T18:31:56.181Z,24.06
2022-09-06T18:32:56.108Z,23.97
2022-09-06T18:33:56.099Z,23.90
2022-09-06T18:35:02.152Z,23.84
2022-09-06T18:35:56.131Z,23.78
2022-09-06T18:36:56.124Z,23.68
2022-09-06T18:37:56.110Z,23.62
2022-09-06T18:39:56.158Z,23.52
2022-09-06T18:41:56.067Z,23.39
2022-09-06T18:43:56.048Z,23.32
2022-09-06T18:44:56.037Z,23.30
2022-09-06T18:45:56.094Z,23.42
2022-09-06T18:48:55.999Z,23.71
2022-09-06T18:49:55.982Z,23.72
2022-09-06T18:51:55.961Z,23.69
2022-09-06T18:53:55.944Z,23.78
2022-09-06T18:55:01.943Z,23.87
2022-09-06T18:56:01.931Z,23.92
2022-09-06T18:56:55.912Z,23.89
2022-09-06T19:00:55.915Z,23.71
2022-09-06T19:01:56.057Z,23.65
2022-09-06T19:02:55.845Z,23.74
2022-09-06T19:03:55.836Z,23.72
2022-09-06T19:05:55.814Z,23.77
2022-09-06T19:12:55.742Z,23.64
2022-09-06T19:14:55.720Z,23.56
2022-09-06T19:15:55.752Z,23.49
2022-09-06T19:16:55.700Z,23.42
2022-09-06T19:19:55.664Z,23.42
2022-09-06T19:20:55.695Z,23.56
2022-09-06T19:21:55.651Z,23.57
2022-09-06T19:23:55.641Z,23.72
2022-09-06T19:25:55.636Z,23.83
2022-09-06T19:27:55.586Z,23.92
2022-09-06T19:29:55.581Z,23.99
2022-09-06T19:30:57.760Z,24.12
2022-09-06T19:31:55.642Z,24.21
2022-09-06T19:41:42.319Z,24.05
2022-09-06T19:42:42.300Z,23.99
2022-09-06T19:46:45.574Z,23.94
2022-09-06T19:47:42.266Z,23.90
2022-09-06T19:49:48.233Z,23.84
2022-09-06T19:50:42.213Z,23.82
2022-09-06T19:52:42.192Z,23.79
2022-09-06T19:54:42.175Z,23.82
2022-09-06T19:56:17.112Z,23.89
2022-09-06T19:57:17.090Z,23.89
2022-09-06T19:58:17.097Z,23.87
2022-09-06T19:59:17.284Z,23.86
2022-09-06T20:00:17.074Z,23.93
2022-09-06T20:02:17.174Z,23.86
2022-09-06T20:03:17.035Z,23.83
2022-09-06T20:05:17.010Z,23.75
2022-09-06T20:08:17.125Z,23.74
2022-09-06T20:09:17.164Z,23.71
2022-09-06T20:11:16.939Z,23.67
2022-09-06T20:13:22.926Z,23.62
2022-09-06T20:16:19.270Z,23.56
2022-09-06T20:18:17.903Z,23.52
2022-09-06T20:20:16.843Z,23.50
2022-09-06T20:21:16.832Z,23.54
2022-09-06T20:22:16.822Z,23.54
2022-09-06T20:23:16.816Z,23.57
2022-09-06T20:24:16.799Z,23.52
2022-09-06T20:25:16.791Z,23.50
2022-09-06T20:26:16.794Z,23.62
2022-09-06T20:27:16.765Z,23.67
2022-09-06T20:28:22.761Z,23.71
2022-09-06T20:30:16.734Z,23.71
2022-09-06T20:32:22.726Z,23.68
2022-09-06T20:34:16.694Z,23.62
2022-09-06T20:35:16.696Z,23.60
2022-09-06T20:38:16.655Z,23.59
2022-09-06T20:40:16.625Z,23.62
2022-09-06T20:44:16.585Z,23.72
2022-09-06T20:52:16.498Z,23.92
2022-09-06T20:53:16.491Z,23.96
2022-09-06T20:54:16.475Z,23.94
2022-09-06T20:56:16.457Z,23.94
2022-09-06T20:57:22.449Z,23.92
2022-09-06T21:07:16.338Z,23.50
2022-09-06T21:13:16.474Z,23.23
2022-09-06T21:15:16.252Z,23.16
2022-09-06T21:16:20.497Z,23.13
2022-09-06T21:17:18.230Z,23.12
2022-09-06T21:20:16.199Z,22.94
2022-09-06T21:21:16.190Z,22.83
2022-09-06T21:22:16.382Z,22.72
2022-09-06T21:23:16.167Z,22.61
2022-09-06T21:24:16.158Z,22.48
2022-09-06T21:25:16.146Z,22.35
2022-09-06T21:26:16.138Z,22.24
2022-09-06T21:27:16.129Z,22.13
2022-09-06T21:28:16.120Z,21.97
2022-09-06T21:29:16.110Z,21.86
2022-09-06T21:30:16.093Z,21.82
2022-09-06T21:31:22.209Z,21.67
2022-09-06T21:32:16.070Z,21.58
2022-09-06T21:33:16.060Z,21.43
2022-09-06T21:34:17.307Z,21.29
2022-09-06T21:35:16.038Z,21.19
2022-09-06T21:36:16.229Z,21.05
2022-09-06T21:37:16.017Z,20.98
2022-09-06T21:38:16.007Z,20.91
2022-09-06T21:39:15.998Z,20.88
2022-09-06T21:40:15.987Z,20.83
2022-09-06T21:41:15.972Z,20.75
2022-09-06T21:42:16.054Z,20.81
2022-09-06T21:43:15.960Z,20.69
2022-09-06T21:44:15.941Z,20.66
2022-09-06T21:45:50.662Z,20.57
2022-09-06T21:46:50.741Z,20.54
2022-09-06T21:47:50.646Z,20.54
2022-09-06T21:48:50.698Z,20.51
2022-09-06T21:49:50.622Z,20.46
2022-09-06T21:50:50.616Z,20.41
2022-09-06T21:51:50.602Z,20.26
2022-09-06T21:52:52.648Z,20.10
2022-09-06T21:53:50.582Z,20.03
2022-09-06T21:54:50.567Z,19.96
2022-09-06T21:55:50.565Z,19.96
2022-09-06T21:56:50.549Z,19.87
2022-09-06T21:57:50.540Z,19.87
2022-09-06T21:58:50.525Z,19.83
2022-09-06T21:59:50.515Z,19.83
2022-09-06T22:00:50.559Z,19.80
2022-09-06T22:01:50.551Z,19.86
2022-09-06T22:02:50.494Z,19.86
2022-09-06T22:03:56.513Z,19.87
2022-09-06T22:04:50.470Z,19.83
2022-09-06T22:05:50.478Z,19.84
2022-09-06T22:06:50.874Z,19.83
2022-09-06T22:07:50.457Z,19.87
2022-09-06T22:08:50.452Z,19.77
2022-09-06T22:09:50.439Z,19.80
2022-09-06T22:10:50.421Z,19.77
2022-09-06T22:11:50.414Z,19.77
2022-09-06T22:12:50.402Z,19.81
2022-09-06T22:13:56.402Z,19.80
2022-09-06T22:14:50.374Z,19.81
2022-09-06T22:15:50.425Z,19.81
2022-09-06T22:16:50.359Z,19.81
2022-09-06T22:17:50.349Z,19.77
2022-09-06T22:18:50.344Z,19.73
2022-09-06T22:19:50.326Z,19.73
2022-09-06T22:20:50.317Z,19.76
2022-09-06T22:21:50.314Z,19.73
2022-09-06T22:22:50.294Z,19.76
2022-09-06T22:23:50.283Z,19.72
2022-09-06T22:24:50.274Z,19.72
2022-09-06T22:25:50.261Z,19.72
2022-09-06T22:26:50.249Z,19.68
2022-09-06T22:27:56.249Z,19.70
2022-09-06T22:28:50.229Z,19.70
2022-09-06T22:29:50.217Z,19.68
2022-09-06T22:30:50.213Z,19.65
2022-09-06T22:31:50.288Z,19.60
2022-09-06T22:32:50.184Z,19.57
2022-09-06T22:33:50.177Z,19.54
2022-09-06T22:34:50.165Z,19.50
2022-09-06T22:35:56.160Z,19.54
2022-09-06T22:37:25.084Z,19.50
2022-09-06T22:38:25.086Z,19.46
2022-09-06T22:39:25.121Z,19.47
2022-09-06T22:40:25.049Z,19.43
2022-09-06T22:41:25.043Z,19.42
2022-09-06T22:42:25.033Z,19.40
2022-09-06T22:43:25.022Z,19.38
2022-09-06T22:44:25.102Z,19.31
2022-09-06T22:45:25.000Z,19.31
2022-09-06T22:46:25.049Z,19.22
2022-09-06T22:47:24.978Z,19.18
2022-09-06T22:48:24.969Z,19.13
2022-09-06T22:49:25.171Z,19.17
2022-09-06T22:50:24.949Z,19.10
2022-09-06T22:51:24.936Z,19.13
2022-09-06T22:52:24.924Z,19.10
2022-09-06T22:53:24.911Z,19.17
2022-09-06T22:54:25.106Z,19.28
2022-09-06T22:55:24.872Z,19.38
2022-09-06T22:56:24.858Z,19.43
2022-09-06T22:57:24.845Z,19.47
2022-09-06T22:58:24.834Z,19.49
2022-09-06T22:59:24.826Z,19.53
2022-09-06T23:00:24.818Z,19.54
2022-09-06T23:01:24.903Z,19.55
2022-09-06T23:02:24.801Z,19.55
2022-09-06T23:03:24.829Z,19.57
2022-09-06T23:04:24.823Z,19.61
2022-09-06T23:05:24.762Z,19.61
2022-09-06T23:06:24.755Z,19.58
2022-09-06T23:07:24.943Z,19.60
2022-09-06T23:08:24.773Z,19.55
2022-09-06T23:09:24.723Z,19.55
2022-09-06T23:10:24.718Z,19.54
2022-09-06T23:11:24.901Z,19.55
2022-09-06T23:12:24.696Z,19.55
2022-09-06T23:13:24.686Z,19.50
2022-09-06T23:14:24.679Z,19.54
2022-09-06T23:15:24.665Z,19.47
2022-09-06T23:16:24.773Z,19.47
2022-09-06T23:17:24.648Z,19.47
2022-09-06T23:18:24.704Z,19.45
2022-09-06T23:19:24.624Z,19.42
2022-09-06T23:20:24.615Z,19.42
2022-09-06T23:21:24.601Z,19.35
2022-09-06T23:22:24.693Z,19.32
2022-09-06T23:23:24.576Z,19.30
2022-09-06T23:24:24.568Z,19.31
2022-09-06T23:25:24.553Z,19.31
2022-09-06T23:26:24.546Z,19.30
2022-09-06T23:27:24.534Z,19.28
2022-09-06T23:28:24.594Z,19.25
2022-09-06T23:29:24.517Z,19.21
2022-09-06T23:30:24.499Z,19.22
2022-09-06T23:31:24.529Z,19.27
2022-09-06T23:32:30.490Z,19.22
2022-09-06T23:33:24.470Z,19.21
2022-09-06T23:34:24.664Z,19.22
2022-09-06T23:35:24.454Z,19.25
2022-09-06T23:36:24.446Z,19.27
2022-09-06T23:37:24.429Z,19.24
2022-09-06T23:38:24.655Z,19.25
2022-09-06T23:39:24.408Z,19.22
2022-09-06T23:40:24.394Z,19.21
2022-09-06T23:41:24.387Z,19.18
2022-09-06T23:42:24.381Z,19.18
2022-09-06T23:43:24.365Z,19.15
2022-09-06T23:44:24.355Z,19.13
2022-09-06T23:45:24.346Z,19.10
2022-09-06T23:46:24.428Z,19.13
2022-09-06T23:47:30.361Z,19.09
2022-09-06T23:48:24.359Z,19.06
2022-09-06T23:49:24.311Z,19.02
2022-09-06T23:50:24.371Z,19.00
2022-09-06T23:51:24.279Z,19.00
2022-09-06T23:52:24.272Z,19.05
2022-09-06T23:53:24.266Z,19.02
2022-09-06T23:54:24.253Z,18.95
2022-09-06T23:55:24.238Z,18.87
2022-09-06T23:56:24.228Z,18.84
2022-09-06T23:57:24.216Z,18.72
2022-09-06T23:58:24.298Z,18.67
2022-09-06T23:59:24.400Z,18.67
